createdAt,value
2022-09-23T00:01:15.489Z,7.00
2022-09-23T00:03:49.143Z,7.40
2022-09-23T00:06:23.464Z,7.50
2022-09-23T00:08:55.336Z,7.80
2022-09-23T00:11:29.116Z,8.00
2022-09-23T00:14:02.225Z,7.30
2022-09-23T00:16:36.039Z,7.80
2022-09-23T00:19:07.993Z,8.00
2022-09-23T00:21:39.969Z,8.00
2022-09-23T00:24:11.878Z,8.10
2022-09-23T00:26:44.084Z,7.30
2022-09-23T00:29:16.885Z,7.60
2022-09-23T00:31:49.293Z,8.30
2022-09-23T00:34:21.373Z,8.00
2022-09-23T00:36:53.541Z,8.20
2022-09-23T00:39:26.442Z,7.90
2022-09-23T00:41:58.364Z,8.60
2022-09-23T00:44:50.270Z,7.00
2022-09-23T00:47:26.529Z,7.60
2022-09-23T00:50:11.093Z,8.50
2022-09-23T00:52:42.952Z,8.00
2022-09-23T00:55:20.006Z,8.00
2022-09-23T00:57:54.736Z,8.30
2022-09-23T01:00:27.119Z,7.70
2022-09-23T01:03:00.231Z,8.10
2022-09-23T01:05:33.113Z,8.20
2022-09-23T01:08:07.890Z,8.80
2022-09-23T01:10:52.494Z,8.40
2022-09-23T01:13:32.171Z,8.50
2022-09-23T01:16:12.739Z,9.00
2022-09-23T01:18:49.147Z,9.30
2022-09-23T01:21:36.564Z,8.40
2022-09-23T01:24:25.201Z,9.30
2022-09-23T01:27:06.853Z,8.90
2022-09-23T01:30:33.103Z,8.90
2022-09-23T01:33:14.349Z,8.20
2022-09-23T01:35:58.887Z,8.20
2022-09-23T01:38:40.606Z,8.60
2022-09-23T01:41:26.145Z,7.80
2022-09-23T01:44:04.952Z,8.20
2022-09-23T01:46:42.769Z,7.50
2022-09-23T01:49:19.937Z,7.60
2022-09-23T01:51:57.622Z,7.30
2022-09-23T01:54:38.612Z,7.10
2022-09-23T01:57:16.203Z,7.20
2022-09-23T01:59:53.634Z,7.20
2022-09-23T02:02:32.943Z,6.30
2022-09-23T02:05:14.500Z,7.40
2022-09-23T02:07:53.249Z,6.80
2022-09-23T02:10:29.799Z,7.10
2022-09-23T02:13:07.396Z,7.40
2022-09-23T02:15:42.986Z,7.00
2022-09-23T02:18:19.073Z,6.70
2022-09-23T02:20:56.635Z,7.50
2022-09-23T02:23:33.987Z,7.20
2022-09-23T02:26:15.057Z,6.60
2022-09-23T02:28:53.949Z,7.20
2022-09-23T02:31:33.648Z,7.30
2022-09-23T02:34:22.036Z,8.10
2022-09-23T02:37:04.666Z,7.30
2022-09-23T02:39:49.213Z,8.00
2022-09-23T02:42:26.749Z,8.10
2022-09-23T02:44:59.028Z,8.20
2022-09-23T02:47:35.351Z,8.20
2022-09-23T02:50:09.501Z,8.50
2022-09-23T02:52:41.357Z,8.50
2022-09-23T02:55:17.702Z,8.30
2022-09-23T02:57:49.587Z,8.30
2022-09-23T03:00:21.813Z,8.50
2022-09-23T03:03:10.615Z,8.40
2022-09-23T03:05:50.632Z,8.40
2022-09-23T03:08:36.854Z,7.60
2022-09-23T03:11:11.717Z,7.60
2022-09-23T03:13:56.871Z,8.30
2022-09-23T03:16:37.915Z,7.60
2022-09-23T03:19:21.735Z,7.70
2022-09-23T03:22:01.141Z,8.10
2022-09-23T03:24:34.979Z,8.30
2022-09-23T03:27:13.669Z,8.00
2022-09-23T03:29:47.557Z,7.60
2022-09-23T03:32:22.127Z,8.00
2022-09-23T03:34:56.201Z,7.90
2022-09-23T03:37:34.315Z,7.50
2022-09-23T03:40:14.250Z,7.90
2022-09-23T03:42:49.063Z,7.90
2022-09-23T03:45:23.930Z,8.10
2022-09-23T03:47:55.945Z,8.10
2022-09-23T03:50:28.224Z,7.40
2022-09-23T03:53:00.514Z,8.70
2022-09-23T03:55:32.619Z,8.30
2022-09-23T03:58:04.991Z,8.00
2022-09-23T04:00:37.340Z,8.40
2022-09-23T04:03:11.759Z,8.40
2022-09-23T04:05:46.006Z,8.50
2022-09-23T04:08:18.475Z,8.40
2022-09-23T04:10:54.623Z,9.10
2022-09-23T04:13:26.755Z,9.20
2022-09-23T04:15:58.652Z,10.00
2022-09-23T04:18:31.391Z,9.60
2022-09-23T04:21:03.668Z,8.80
2022-09-23T04:23:36.274Z,9.20
2022-09-23T04:26:08.557Z,8.20
2022-09-23T04:28:40.778Z,8.60
2022-09-23T04:31:13.070Z,9.60
2022-09-23T04:33:44.986Z,9.30
2022-09-23T04:36:16.871Z,9.70
2022-09-23T04:38:50.279Z,9.30
2022-09-23T04:41:22.474Z,10.00
2022-09-23T04:43:54.990Z,9.70
2022-09-23T04:46:27.212Z,9.80
2022-09-23T04:48:59.814Z,10.30
2022-09-23T04:51:31.754Z,9.90
2022-09-23T04:54:04.638Z,11.40
2022-09-23T04:56:37.458Z,11.90
2022-09-23T04:59:09.714Z,10.90
2022-09-23T05:01:42.247Z,10.70
2022-09-23T05:04:15.002Z,11.20
2022-09-23T05:06:47.110Z,11.80
2022-09-23T05:09:19.882Z,12.20
2022-09-23T05:11:52.051Z,11.90
2022-09-23T05:14:23.945Z,12.60
2022-09-23T05:16:56.284Z,12.70
2022-09-23T05:19:28.751Z,13.40
2022-09-23T05:22:00.562Z,12.80
2022-09-23T05:24:32.728Z,13.20
2022-09-23T05:27:07.257Z,14.10
2022-09-23T05:29:39.808Z,12.80
2022-09-23T05:32:11.576Z,13.70
2022-09-23T05:34:43.478Z,11.90
2022-09-23T05:37:15.446Z,12.90
2022-09-23T05:39:47.303Z,11.60
2022-09-23T05:42:20.693Z,11.50
2022-09-23T05:44:52.719Z,12.00
2022-09-23T05:47:24.662Z,10.90
2022-09-23T05:49:59.902Z,11.10
2022-09-23T05:52:34.986Z,11.40
2022-09-23T05:55:08.605Z,11.40
2022-09-23T05:57:40.450Z,11.30
2022-09-23T06:00:14.547Z,11.00
2022-09-23T06:02:48.087Z,11.50
2022-09-23T06:05:20.704Z,11.00
2022-09-23T06:07:52.748Z,12.10
2022-09-23T06:10:24.663Z,12.00
2022-09-23T06:12:56.530Z,13.00
2022-09-23T06:15:28.737Z,12.10
2022-09-23T06:18:00.668Z,12.10
2022-09-23T06:20:32.946Z,13.00
2022-09-23T06:23:10.352Z,13.00
2022-09-23T06:25:43.446Z,12.60
2022-09-23T06:28:15.796Z,13.80
2022-09-23T06:30:54.311Z,13.60
2022-09-23T06:33:36.076Z,12.70
2022-09-23T06:36:10.396Z,12.60
2022-09-23T06:38:44.887Z,13.50
2022-09-23T06:41:17.930Z,13.50
2022-09-23T06:43:49.902Z,12.70
2022-09-23T06:46:21.991Z,12.80
2022-09-23T06:48:53.986Z,12.70
2022-09-23T06:51:25.867Z,13.20
2022-09-23T06:53:57.821Z,13.20
2022-09-23T06:56:32.414Z,13.60
2022-09-23T06:59:06.684Z,13.50
2022-09-23T07:01:38.722Z,12.20
2022-09-23T07:04:11.251Z,12.80
2022-09-23T07:06:43.556Z,11.40
2022-09-23T07:09:15.375Z,12.70
2022-09-23T07:11:49.782Z,13.90
2022-09-23T07:14:22.586Z,13.40
2022-09-23T07:16:54.864Z,12.80
2022-09-23T07:19:26.753Z,12.50
2022-09-23T07:21:58.645Z,11.30
2022-09-23T07:24:31.156Z,11.60
2022-09-23T07:27:03.212Z,11.90
2022-09-23T07:29:44.898Z,11.50
2022-09-23T07:32:22.144Z,11.40
2022-09-23T07:34:54.278Z,10.40
2022-09-23T07:37:26.125Z,10.30
2022-09-23T07:39:58.018Z,11.40
2022-09-23T07:42:29.838Z,10.30
2022-09-23T07:45:02.348Z,10.70
2022-09-23T07:47:34.815Z,9.60
2022-09-23T07:50:08.046Z,9.50
2022-09-23T07:52:40.573Z,7.40
2022-09-23T07:55:17.640Z,7.80
2022-09-23T07:57:52.791Z,8.00
2022-09-23T08:00:24.802Z,7.40
2022-09-23T08:02:56.742Z,7.70
2022-09-23T08:05:29.458Z,6.00
2022-09-23T08:08:01.400Z,6.60
2022-09-23T08:10:33.287Z,7.90
2022-09-23T08:13:05.144Z,7.10
2022-09-23T08:15:37.116Z,8.00
2022-09-23T08:18:09.095Z,7.30
2022-09-23T08:20:48.018Z,7.10
2022-09-23T08:23:20.658Z,6.90
2022-09-23T08:26:00.198Z,6.50
2022-09-23T08:28:33.268Z,6.60
2022-09-23T08:31:05.455Z,6.70
2022-09-23T08:33:37.558Z,6.70
2022-09-23T08:36:10.549Z,5.80
2022-09-23T08:38:43.390Z,7.30
2022-09-23T08:41:29.317Z,6.30
2022-09-23T08:44:06.018Z,7.00
2022-09-23T08:46:42.457Z,6.30
2022-09-23T08:49:20.218Z,6.40
2022-09-23T08:51:54.937Z,4.60
2022-09-23T08:54:31.919Z,4.90
2022-09-23T08:57:06.564Z,4.80
2022-09-23T08:59:43.351Z,4.60
2022-09-23T09:02:19.861Z,4.80
2022-09-23T09:04:54.958Z,5.30
2022-09-23T09:07:38.202Z,4.00
2022-09-23T09:10:20.929Z,3.40
2022-09-23T09:13:01.145Z,3.30
2022-09-23T09:15:36.969Z,3.20
2022-09-23T09:18:14.276Z,3.30
2022-09-23T09:20:57.097Z,3.10
2022-09-23T09:23:36.298Z,3.00
2022-09-23T09:26:17.702Z,2.40
2022-09-23T09:28:54.774Z,2.40
2022-09-23T09:31:33.950Z,2.30
2022-09-23T09:34:12.165Z,2.30
2022-09-23T09:36:50.358Z,2.40
2022-09-23T09:39:26.128Z,2.00
2022-09-23T09:42:00.600Z,2.10
2022-09-23T09:44:40.049Z,1.80
2022-09-23T09:47:28.915Z,3.00
2022-09-23T09:50:09.452Z,20.20
2022-09-23T09:52:43.394Z,5.10
2022-09-23T09:55:29.903Z,2.50
2022-09-23T09:58:06.037Z,17.40
2022-09-23T10:00:43.999Z,8.50
2022-09-23T10:03:40.078Z,7.20
2022-09-23T10:06:21.660Z,5.80
2022-09-23T10:09:13.843Z,6.30
2022-09-23T10:12:11.931Z,3.90
2022-09-23T10:14:44.228Z,1.40
2022-09-23T10:17:20.581Z,1.00
2022-09-23T10:20:00.987Z,1.10
2022-09-23T10:22:39.917Z,1.00
2022-09-23T10:25:21.665Z,1.20
2022-09-23T10:27:53.862Z,1.20
2022-09-23T10:30:28.327Z,1.70
2022-09-23T10:33:00.234Z,0.90
2022-09-23T10:35:34.513Z,1.00
2022-09-23T10:38:06.442Z,0.70
2022-09-23T10:40:58.570Z,0.90
2022-09-23T10:44:00.944Z,0.70
2022-09-23T10:46:41.735Z,0.60
2022-09-23T10:49:49.977Z,0.50
2022-09-23T10:52:46.607Z,0.60
2022-09-23T10:55:34.827Z,0.50
2022-09-23T10:58:26.386Z,0.40
2022-09-23T11:01:13.190Z,0.70
2022-09-23T11:04:11.992Z,0.40
2022-09-23T11:06:55.898Z,0.50
2022-09-23T11:09:40.861Z,0.70
2022-09-23T11:12:27.466Z,0.70
2022-09-23T11:15:16.739Z,0.70
2022-09-23T11:18:22.289Z,1.80
2022-09-23T11:21:03.438Z,0.90
2022-09-23T11:23:52.559Z,0.70
2022-09-23T11:26:37.930Z,1.00
2022-09-23T11:29:31.702Z,0.50
2022-09-23T11:32:27.737Z,0.70
2022-09-23T11:35:12.704Z,16.90
2022-09-23T11:37:48.121Z,1.30
2022-09-23T11:40:27.922Z,1.50
2022-09-23T11:43:04.411Z,0.80
2022-09-23T11:45:43.366Z,0.70
2022-09-23T11:48:21.646Z,0.70
2022-09-23T11:51:01.351Z,0.50
2022-09-23T11:53:45.103Z,0.50
2022-09-23T11:56:33.348Z,0.40
2022-09-23T11:59:37.278Z,0.80
2022-09-23T12:02:24.667Z,0.70
2022-09-23T12:05:07.569Z,0.90
2022-09-23T12:07:51.896Z,0.80
2022-09-23T12:10:28.846Z,0.70
2022-09-23T12:13:07.457Z,1.00
2022-09-23T12:15:53.640Z,1.40
2022-09-23T12:18:42.319Z,0.80
2022-09-23T12:21:50.400Z,0.60
2022-09-23T12:24:46.670Z,0.90
2022-09-23T12:27:30.453Z,0.60
2022-09-23T12:30:11.953Z,0.70
2022-09-23T12:32:47.544Z,0.70
2022-09-23T12:35:26.633Z,0.50
2022-09-23T12:38:00.974Z,0.40
2022-09-23T12:40:35.893Z,0.80
2022-09-23T12:43:16.282Z,1.00
2022-09-23T12:45:48.609Z,0.50
2022-09-23T12:48:46.852Z,0.50
2022-09-23T12:51:23.277Z,0.70
2022-09-23T12:53:58.011Z,0.80
2022-09-23T12:56:45.209Z,0.60
2022-09-23T12:59:31.719Z,0.50
2022-09-23T13:02:27.463Z,2.60
2022-09-23T13:05:28.852Z,0.80
2022-09-23T13:08:04.219Z,0.40
2022-09-23T13:10:44.152Z,0.70
2022-09-23T13:13:25.378Z,1.20
2022-09-23T13:16:12.067Z,1.00
2022-09-23T13:19:01.673Z,1.60
2022-09-23T13:22:03.792Z,1.10
2022-09-23T13:24:53.800Z,1.20
2022-09-23T13:27:32.305Z,1.40
2022-09-23T13:30:21.227Z,1.10
2022-09-23T13:33:06.357Z,1.10
2022-09-23T13:35:42.059Z,1.40
2022-09-23T13:38:20.020Z,2.30
2022-09-23T13:40:52.231Z,1.70
2022-09-23T13:43:31.902Z,1.40
2022-09-23T13:46:09.624Z,1.20
2022-09-23T13:48:44.313Z,1.20
2022-09-23T13:51:23.637Z,1.70
2022-09-23T13:53:59.660Z,0.90
2022-09-23T13:56:33.543Z,0.90
2022-09-23T13:59:24.043Z,1.00
2022-09-23T14:02:08.319Z,1.20
2022-09-23T14:04:40.405Z,1.10
2022-09-23T14:07:15.768Z,1.00
2022-09-23T14:09:49.943Z,1.20
2022-09-23T14:12:23.086Z,0.60
2022-09-23T14:14:55.350Z,1.10
2022-09-23T14:17:27.294Z,0.80
2022-09-23T14:19:59.321Z,0.90
2022-09-23T14:22:32.525Z,0.80
2022-09-23T14:25:04.831Z,1.00
2022-09-23T14:27:37.624Z,0.80
2022-09-23T14:30:19.184Z,0.90
2022-09-23T14:32:52.201Z,0.90
2022-09-23T14:35:27.130Z,0.60
2022-09-23T14:38:18.034Z,0.90
2022-09-23T14:41:12.046Z,0.70
2022-09-23T14:43:50.693Z,0.90
2022-09-23T14:46:24.580Z,1.00
2022-09-23T14:49:05.988Z,1.00
2022-09-23T14:51:49.355Z,0.90
2022-09-23T14:54:36.503Z,1.20
2022-09-23T14:57:29.794Z,1.80
2022-09-23T15:00:10.295Z,2.50
2022-09-23T15:02:46.366Z,1.30
2022-09-23T15:05:21.656Z,0.90
2022-09-23T15:07:56.722Z,0.90
2022-09-23T15:10:32.760Z,0.50
2022-09-23T15:13:09.724Z,0.80
2022-09-23T15:15:42.393Z,0.80
2022-09-23T15:18:19.691Z,1.00
2022-09-23T15:20:54.933Z,0.90
2022-09-23T15:23:44.887Z,0.90
2022-09-23T15:26:20.031Z,1.20
2022-09-23T15:28:54.234Z,1.00
2022-09-23T15:31:26.827Z,1.00
2022-09-23T15:33:59.026Z,1.00
2022-09-23T15:36:31.242Z,1.00
2022-09-23T15:39:08.734Z,1.20
2022-09-23T15:41:43.360Z,1.30
2022-09-23T15:44:29.584Z,1.40
2022-09-23T15:47:02.018Z,1.40
2022-09-23T15:49:36.767Z,1.50
2022-09-23T15:52:12.370Z,1.50
2022-09-23T15:54:44.945Z,1.60
2022-09-23T15:57:17.096Z,1.90
2022-09-23T15:59:49.362Z,1.70
2022-09-23T16:02:25.246Z,2.50
2022-09-23T16:04:57.476Z,1.90
2022-09-23T16:07:29.794Z,1.80
2022-09-23T16:10:03.503Z,1.40
2022-09-23T16:12:35.613Z,1.40
2022-09-23T16:15:14.672Z,1.40
2022-09-23T16:17:47.295Z,1.50
2022-09-23T16:20:19.593Z,1.90
2022-09-23T16:22:57.202Z,2.60
2022-09-23T16:25:32.095Z,7.00
2022-09-23T16:28:04.999Z,6.60
2022-09-23T16:30:37.593Z,12.70
2022-09-23T16:33:09.466Z,8.00
2022-09-23T16:35:41.276Z,5.80
2022-09-23T16:38:13.910Z,6.80
2022-09-23T16:40:47.302Z,5.50
2022-09-23T16:43:19.757Z,2.70
2022-09-23T16:45:51.666Z,3.10
2022-09-23T16:48:24.909Z,2.90
2022-09-23T16:50:56.792Z,3.10
2022-09-23T16:53:31.151Z,3.00
2022-09-23T16:56:09.484Z,4.30
2022-09-23T16:58:42.297Z,33.50
2022-09-23T17:01:37.886Z,44.70
2022-09-23T17:04:10.666Z,36.80
2022-09-23T17:06:50.301Z,31.00
2022-09-23T17:09:24.849Z,23.10
2022-09-23T17:12:05.892Z,24.30
2022-09-23T17:14:37.797Z,23.80
2022-09-23T17:17:10.456Z,18.80
2022-09-23T17:19:42.412Z,12.30
2022-09-23T17:22:14.461Z,10.80
2022-09-23T17:24:46.764Z,9.50
2022-09-23T17:27:18.983Z,8.20
2022-09-23T17:29:50.875Z,7.60
2022-09-23T17:32:22.937Z,6.90
2022-09-23T17:34:54.919Z,7.60
2022-09-23T17:37:26.740Z,8.10
2022-09-23T17:39:58.635Z,7.90
2022-09-23T17:42:30.737Z,7.60
2022-09-23T17:45:02.660Z,7.20
2022-09-23T17:47:39.452Z,7.20
2022-09-23T17:50:15.270Z,8.50
2022-09-23T17:52:47.179Z,8.20
2022-09-23T17:55:20.073Z,8.30
2022-09-23T17:57:54.278Z,7.60
2022-09-23T18:00:27.457Z,7.10
2022-09-23T18:02:59.816Z,7.00
2022-09-23T18:05:31.981Z,8.00
2022-09-23T18:08:06.118Z,6.60
2022-09-23T18:10:38.176Z,6.20
2022-09-23T18:13:10.739Z,7.70
2022-09-23T18:15:43.311Z,7.60
2022-09-23T18:18:15.580Z,7.10
2022-09-23T18:20:47.567Z,7.90
2022-09-23T18:23:24.024Z,8.90
2022-09-23T18:25:58.210Z,7.90
2022-09-23T18:28:34.928Z,9.10
2022-09-23T18:31:07.444Z,8.70
2022-09-23T18:33:39.722Z,8.40
2022-09-23T18:36:12.680Z,9.10
2022-09-23T18:38:44.799Z,9.40
2022-09-23T18:41:17.808Z,9.70
2022-09-23T18:43:50.435Z,9.80
2022-09-23T18:46:24.493Z,10.00
2022-09-23T18:49:14.659Z,10.50
2022-09-23T18:51:53.932Z,9.10
2022-09-23T18:54:29.745Z,9.60
2022-09-23T18:57:01.793Z,11.00
2022-09-23T18:59:34.188Z,10.60
2022-09-23T19:02:07.796Z,11.40
2022-09-23T19:04:40.355Z,11.60
2022-09-23T19:07:12.500Z,11.80
2022-09-23T19:09:44.883Z,11.70
2022-09-23T19:12:17.064Z,12.30
2022-09-23T19:14:49.211Z,12.80
2022-09-23T19:17:21.463Z,12.30
2022-09-23T19:19:53.501Z,12.50
2022-09-23T19:22:25.726Z,13.00
2022-09-23T19:24:57.780Z,11.90
2022-09-23T19:27:29.801Z,12.90
2022-09-23T19:30:01.843Z,12.30
2022-09-23T19:32:34.923Z,12.10
2022-09-23T19:35:07.811Z,13.30
2022-09-23T19:37:40.813Z,13.00
2022-09-23T19:40:13.621Z,11.90
2022-09-23T19:42:45.690Z,13.20
2022-09-23T19:45:18.517Z,16.60
2022-09-23T19:47:54.395Z,15.00
2022-09-23T19:50:26.734Z,14.40
2022-09-23T19:52:59.895Z,13.40
2022-09-23T19:55:33.305Z,14.50
2022-09-23T19:58:06.006Z,14.40
2022-09-23T20:00:38.118Z,14.70
2022-09-23T20:03:11.408Z,15.40
2022-09-23T20:05:43.342Z,14.80
2022-09-23T20:08:15.172Z,14.70
2022-09-23T20:10:48.304Z,14.70
2022-09-23T20:13:20.343Z,14.50
2022-09-23T20:15:52.275Z,13.70
2022-09-23T20:18:24.213Z,14.10
2022-09-23T20:20:57.699Z,14.10
2022-09-23T20:23:30.810Z,14.20
2022-09-23T20:26:21.934Z,13.30
2022-09-23T20:28:54.377Z,12.30
2022-09-23T20:31:27.250Z,14.10
2022-09-23T20:34:00.085Z,13.80
2022-09-23T20:36:32.913Z,15.20
2022-09-23T20:39:06.880Z,15.60
2022-09-23T20:41:41.032Z,15.40
2022-09-23T20:44:14.131Z,15.20
2022-09-23T20:46:48.956Z,15.20
2022-09-23T20:49:22.797Z,14.00
2022-09-23T20:51:54.719Z,14.40
2022-09-23T20:54:26.712Z,14.50
2022-09-23T20:56:58.862Z,14.60
2022-09-23T20:59:30.982Z,16.10
2022-09-23T21:02:03.301Z,15.50
2022-09-23T21:04:36.168Z,16.20
2022-09-23T21:07:08.328Z,16.00
2022-09-23T21:09:40.682Z,17.70
2022-09-23T21:12:12.559Z,17.00
2022-09-23T21:14:44.557Z,18.20
2022-09-23T21:17:16.452Z,17.40
2022-09-23T21:19:48.234Z,17.60
2022-09-23T21:22:20.103Z,16.60
2022-09-23T21:25:26.185Z,16.50
2022-09-23T21:27:44.886Z,16.00
2022-09-23T21:30:17.927Z,15.80
2022-09-23T21:32:49.854Z,15.40
2022-09-23T21:35:22.110Z,15.00
2022-09-23T21:37:53.985Z,15.10
2022-09-23T21:40:43.791Z,16.10
2022-09-23T21:43:16.842Z,14.70
2022-09-23T21:45:49.551Z,14.80
2022-09-23T21:48:21.743Z,14.00
2022-09-23T21:50:59.347Z,15.00
2022-09-23T21:53:33.000Z,15.30
2022-09-23T21:56:07.681Z,16.60
2022-09-23T21:58:41.316Z,15.90
2022-09-23T22:01:15.752Z,15.70
2022-09-23T22:03:52.936Z,15.10
2022-09-23T22:06:27.303Z,14.80
2022-09-23T22:09:04.130Z,14.50
2022-09-23T22:11:54.370Z,14.90
2022-09-23T22:14:27.337Z,14.10
2022-09-23T22:17:02.358Z,15.10
2022-09-23T22:19:40.299Z,13.80
2022-09-23T22:22:15.585Z,14.40
2022-09-23T22:24:49.221Z,14.00
2022-09-23T22:27:21.843Z,14.30
2022-09-23T22:30:11.575Z,13.80
2022-09-23T22:32:43.758Z,13.80
2022-09-23T22:35:17.973Z,14.30
2022-09-23T22:37:52.238Z,13.00
2022-09-23T22:40:24.462Z,13.20
2022-09-23T22:42:57.079Z,14.00
2022-09-23T22:45:29.018Z,13.90
2022-09-23T22:48:01.105Z,13.20
2022-09-23T22:50:33.069Z,14.30
2022-09-23T22:53:05.069Z,13.30
2022-09-23T22:55:37.284Z,13.60
2022-09-23T22:58:30.706Z,14.00
2022-09-23T23:01:02.587Z,14.30
2022-09-23T23:03:35.365Z,13.20
2022-09-23T23:06:08.810Z,13.50
2022-09-23T23:08:40.758Z,14.10
2022-09-23T23:11:12.823Z,13.20
2022-09-23T23:13:45.218Z,13.40
2022-09-23T23:16:17.419Z,13.40
2022-09-23T23:18:49.356Z,13.00
2022-09-23T23:21:22.339Z,12.70
2022-09-23T23:23:54.707Z,12.80
2022-09-23T23:26:28.601Z,12.80
2022-09-23T23:29:01.575Z,12.30
2022-09-23T23:31:33.720Z,13.80
2022-09-23T23:34:05.937Z,13.30
2022-09-23T23:36:38.336Z,13.90
2022-09-23T23:39:11.366Z,14.20
2022-09-23T23:41:43.388Z,13.70
2022-09-23T23:44:15.604Z,14.60
2022-09-23T23:46:48.298Z,13.10
2022-09-23T23:49:20.460Z,13.80
2022-09-23T23:51:53.111Z,15.10
2022-09-23T23:54:24.917Z,14.80
2022-09-23T23:56:56.792Z,15.70
2022-09-23T23:59:28.932Z,14.80
